createdAt,value
2022-12-28T00:00:34.495Z,352.66
2022-12-28T00:01:34.504Z,351.77
2022-12-28T00:02:34.486Z,350.81
2022-12-28T00:03:34.458Z,350.54
2022-12-28T00:04:34.481Z,350.34
2022-12-28T00:05:34.449Z,350.32
2022-12-28T00:06:34.461Z,351.41
2022-12-28T00:07:34.495Z,352.24
2022-12-28T00:08:34.460Z,352.63
2022-12-28T00:09:34.464Z,353.3
2022-12-28T00:11:07.060Z,353.72
2022-12-28T00:11:36.165Z,353.86
2022-12-28T00:12:36.181Z,353.21
2022-12-28T00:13:36.164Z,353.44
2022-12-28T00:14:36.149Z,352.72
2022-12-28T00:15:36.152Z,352.22
2022-12-28T00:16:36.192Z,351.24
2022-12-28T00:17:36.185Z,351.24
2022-12-28T00:18:36.164Z,351.4
2022-12-28T00:19:36.171Z,351.47
2022-12-28T00:20:36.216Z,350.74
2022-12-28T00:21:36.170Z,351.93
2022-12-28T00:22:36.193Z,351.23
2022-12-28T00:23:36.171Z,352.29
2022-12-28T00:24:36.172Z,351.19
2022-12-28T00:25:36.170Z,349.49
2022-12-28T00:26:36.168Z,349.49
2022-12-28T00:27:36.196Z,347.76
2022-12-28T00:28:36.171Z,346.32
2022-12-28T00:29:36.179Z,346.35
2022-12-28T00:30:36.187Z,345.74
2022-12-28T00:31:36.327Z,343.92
2022-12-28T00:32:36.217Z,343.21
2022-12-28T00:33:36.186Z,342.47
2022-12-28T00:34:36.195Z,341.75
2022-12-28T00:35:36.188Z,340.41
2022-12-28T00:37:07.698Z,340.18
2022-12-28T00:37:36.218Z,341.1
2022-12-28T00:38:36.191Z,341.08
2022-12-28T00:39:36.192Z,342
2022-12-28T00:40:36.201Z,342.94
2022-12-28T00:41:36.198Z,343.49
2022-12-28T00:42:36.234Z,344.6
2022-12-28T00:43:36.202Z,345.26
2022-12-28T00:44:36.206Z,344.82
2022-12-28T00:45:36.220Z,344.4
2022-12-28T00:46:36.206Z,345.15
2022-12-28T00:47:36.230Z,344.9
2022-12-28T00:48:36.203Z,345.5
2022-12-28T00:49:36.205Z,345.2
2022-12-28T00:50:36.218Z,345.17
2022-12-28T00:51:36.212Z,345.17
2022-12-28T00:52:36.263Z,344.94
2022-12-28T00:53:36.217Z,345.92
2022-12-28T00:54:36.213Z,344.73
2022-12-28T00:55:36.217Z,344.83
2022-12-28T00:56:36.220Z,343.88
2022-12-28T00:57:36.248Z,342.82
2022-12-28T00:58:36.225Z,343.26
2022-12-28T00:59:36.225Z,342.82
2022-12-28T01:00:36.221Z,343.74
2022-12-28T01:01:36.347Z,343.73
2022-12-28T01:02:36.282Z,343.96
2022-12-28T01:03:36.243Z,345.1
2022-12-28T01:04:36.227Z,345.08
2022-12-28T01:05:36.234Z,344.66
2022-12-28T01:06:36.237Z,345.02
2022-12-28T01:07:36.268Z,345.89
2022-12-28T01:08:36.282Z,345.39
2022-12-28T01:09:36.243Z,345.21
2022-12-28T01:10:36.245Z,345.92
2022-12-28T01:11:36.260Z,345.92
2022-12-28T01:12:38.188Z,346.18
2022-12-28T01:13:36.248Z,348.11
2022-12-28T01:14:36.252Z,348.09
2022-12-28T01:15:36.249Z,348.51
2022-12-28T01:16:36.305Z,347.53
2022-12-28T01:17:36.294Z,349.92
2022-12-28T01:18:36.257Z,350.08
2022-12-28T01:19:36.255Z,350.99
2022-12-28T01:20:36.253Z,351.86
2022-12-28T01:21:36.261Z,353.16
2022-12-28T01:22:36.283Z,354.04
2022-12-28T01:23:36.263Z,355.51
2022-12-28T01:24:36.299Z,356.37
2022-12-28T01:25:36.263Z,357.02
2022-12-28T01:26:36.276Z,357.84
2022-12-28T01:27:36.335Z,358.56
2022-12-28T01:28:36.279Z,358.66
2022-12-28T01:29:36.270Z,359.53
2022-12-28T01:30:38.838Z,359.11
2022-12-28T01:31:36.323Z,359.51
2022-12-28T01:32:36.299Z,359.57
2022-12-28T01:33:36.278Z,359.95
2022-12-28T01:34:36.285Z,359.76
2022-12-28T01:35:36.293Z,359.45
2022-12-28T01:36:36.281Z,359.64
2022-12-28T01:37:36.304Z,360.4
2022-12-28T01:38:36.289Z,360.27
2022-12-28T01:39:36.289Z,359.61
2022-12-28T01:40:36.316Z,360.06
2022-12-28T01:41:36.295Z,360.66
2022-12-28T01:42:36.316Z,361.39
2022-12-28T01:43:39.182Z,361.08
2022-12-28T01:44:36.290Z,361.32
2022-12-28T01:45:36.391Z,361.48
2022-12-28T01:46:36.293Z,361.83
2022-12-28T01:47:36.329Z,362.15
2022-12-28T01:48:36.300Z,362.58
2022-12-28T01:49:36.306Z,363.19
2022-12-28T01:50:36.300Z,363.1
2022-12-28T01:51:36.310Z,362.67
2022-12-28T01:52:36.333Z,362.85
2022-12-28T01:53:36.304Z,364
2022-12-28T01:54:39.119Z,364.08
2022-12-28T01:55:36.323Z,364.68
2022-12-28T01:56:36.337Z,364.42
2022-12-28T01:57:36.339Z,364.59
2022-12-28T01:58:36.319Z,364.97
2022-12-28T01:59:36.315Z,365.4
2022-12-28T02:00:36.327Z,365.2
2022-12-28T02:01:36.419Z,366.06
2022-12-28T02:02:36.500Z,366.08
2022-12-28T02:03:36.326Z,367.11
2022-12-28T02:04:36.339Z,367.34
2022-12-28T02:05:39.333Z,368.81
2022-12-28T02:06:36.324Z,368.42
2022-12-28T02:07:36.384Z,368.33
2022-12-28T02:08:36.344Z,369.01
2022-12-28T02:09:36.340Z,369.62
2022-12-28T02:10:45.599Z,369.4
2022-12-28T02:11:45.958Z,369.6
2022-12-28T02:12:43.163Z,370.44
2022-12-28T02:13:43.104Z,370.18
2022-12-28T02:14:43.112Z,370.73
2022-12-28T02:15:43.108Z,371.39
2022-12-28T02:16:43.233Z,371.55
2022-12-28T02:17:43.135Z,372.63
2022-12-28T02:18:43.133Z,373.01
2022-12-28T02:19:43.115Z,374.18
2022-12-28T02:20:43.126Z,374.64
2022-12-28T02:21:43.123Z,375.09
2022-12-28T02:22:46.145Z,377.09
2022-12-28T02:23:43.126Z,378.93
2022-12-28T02:24:43.123Z,378.86
2022-12-28T02:25:43.131Z,379.04
2022-12-28T02:26:43.137Z,379.68
2022-12-28T02:27:43.147Z,380.48
2022-12-28T02:28:43.127Z,380.89
2022-12-28T02:29:43.137Z,381.77
2022-12-28T02:30:43.167Z,382.56
2022-12-28T02:31:43.133Z,383.67
2022-12-28T02:32:43.133Z,383.78
2022-12-28T02:33:45.898Z,384.4
2022-12-28T02:34:43.138Z,384.05
2022-12-28T02:35:43.138Z,384.47
2022-12-28T02:36:43.140Z,385.12
2022-12-28T02:37:43.147Z,384.5
2022-12-28T02:38:43.153Z,384.5
2022-12-28T02:39:43.149Z,383.21
2022-12-28T02:40:43.147Z,382.94
2022-12-28T02:41:43.162Z,382.23
2022-12-28T02:42:43.170Z,381.56
2022-12-28T02:43:43.192Z,381.8
2022-12-28T02:44:43.164Z,380.88
2022-12-28T02:45:43.202Z,380.89
2022-12-28T02:46:43.157Z,380.26
2022-12-28T02:47:43.161Z,380.33
2022-12-28T02:48:43.168Z,379.42
2022-12-28T02:49:43.166Z,380.09
2022-12-28T02:50:43.167Z,380.02
2022-12-28T02:51:43.171Z,380.62
2022-12-28T02:52:43.164Z,381.08
2022-12-28T02:53:43.184Z,381.59
2022-12-28T02:54:43.173Z,382.29
2022-12-28T02:55:43.178Z,382.3
2022-12-28T02:56:43.181Z,382.29
2022-12-28T02:57:43.179Z,382.52
2022-12-28T02:58:43.181Z,383.83
2022-12-28T02:59:43.209Z,384.09
2022-12-28T03:00:43.175Z,383.87
2022-12-28T03:01:43.269Z,384.44
2022-12-28T03:02:43.235Z,384.88
2022-12-28T03:03:43.186Z,385.1
2022-12-28T03:04:43.191Z,384.54
2022-12-28T03:05:46.213Z,384.94
2022-12-28T03:06:43.186Z,385.8
2022-12-28T03:07:43.196Z,385.94
2022-12-28T03:08:43.194Z,386.55
2022-12-28T03:09:43.199Z,386.86
2022-12-28T03:10:43.191Z,387.51
2022-12-28T03:11:43.203Z,387.83
2022-12-28T03:12:43.208Z,387.75
2022-12-28T03:13:43.218Z,388.59
2022-12-28T03:14:43.221Z,389.52
2022-12-28T03:15:43.314Z,390.37
2022-12-28T03:16:46.219Z,390.81
2022-12-28T03:17:43.212Z,391.11
2022-12-28T03:18:43.214Z,390.85
2022-12-28T03:19:43.208Z,391.33
2022-12-28T03:20:43.238Z,391.74
2022-12-28T03:21:43.215Z,391.59
2022-12-28T03:22:43.208Z,391.32
2022-12-28T03:23:43.218Z,391.12
2022-12-28T03:24:43.223Z,391.79
2022-12-28T03:25:43.215Z,391.32
2022-12-28T03:26:43.224Z,391.98
2022-12-28T03:27:46.041Z,391.72
2022-12-28T03:28:43.220Z,391.49
2022-12-28T03:29:43.231Z,391.28
2022-12-28T03:30:43.261Z,391.29
2022-12-28T03:31:43.273Z,391.06
2022-12-28T03:32:43.227Z,390.78
2022-12-28T03:33:43.260Z,391.58
2022-12-28T03:34:43.232Z,392.28
2022-12-28T03:35:43.232Z,391.75
2022-12-28T03:36:43.234Z,392.9
2022-12-28T03:37:43.240Z,392.55
2022-12-28T03:38:43.261Z,393.66
2022-12-28T03:39:43.248Z,393.82
2022-12-28T03:40:43.239Z,395.27
2022-12-28T03:41:43.249Z,394.92
2022-12-28T03:42:43.241Z,395.69
2022-12-28T03:43:43.277Z,397.07
2022-12-28T03:44:43.252Z,397.21
2022-12-28T03:45:44.521Z,397.43
2022-12-28T03:46:43.257Z,398.26
2022-12-28T03:47:43.282Z,399.33
2022-12-28T03:48:43.286Z,399.92
2022-12-28T03:49:43.258Z,400.36
2022-12-28T03:50:43.264Z,400.73
2022-12-28T03:51:43.264Z,401.48
2022-12-28T03:52:43.263Z,401.73
2022-12-28T03:53:43.299Z,402.75
2022-12-28T03:54:43.260Z,402.09
2022-12-28T03:55:43.286Z,403.47
2022-12-28T03:56:43.274Z,402.71
2022-12-28T03:57:43.267Z,403.62
2022-12-28T03:58:43.485Z,403.51
2022-12-28T03:59:43.271Z,404.14
2022-12-28T04:00:43.282Z,404.31
2022-12-28T04:01:43.335Z,404.56
2022-12-28T04:02:43.429Z,404.6
2022-12-28T04:03:43.342Z,404.76
2022-12-28T04:04:43.279Z,405.4
2022-12-28T04:05:43.283Z,405.11
2022-12-28T04:06:43.288Z,406.15
2022-12-28T04:07:43.291Z,405.7
2022-12-28T04:08:43.309Z,405.56
2022-12-28T04:09:43.293Z,405.86
2022-12-28T04:10:43.292Z,405.64
2022-12-28T04:11:43.289Z,405.23
2022-12-28T04:12:43.301Z,405.69
2022-12-28T04:13:43.326Z,405.01
2022-12-28T04:14:43.303Z,405.63
2022-12-28T04:15:43.355Z,404.95
2022-12-28T04:16:43.311Z,405.07
2022-12-28T04:17:43.305Z,405.56
2022-12-28T04:18:43.331Z,405.39
2022-12-28T04:19:43.331Z,405.18
2022-12-28T04:20:43.311Z,404.83
2022-12-28T04:21:43.311Z,404.81
2022-12-28T04:22:43.315Z,404.11
2022-12-28T04:23:43.336Z,403.88
2022-12-28T04:24:43.312Z,403.09
2022-12-28T04:25:43.325Z,402.18
2022-12-28T04:26:43.311Z,401.82
2022-12-28T04:27:43.316Z,401
2022-12-28T04:28:43.339Z,399.67
2022-12-28T04:29:43.316Z,399.45
2022-12-28T04:30:43.330Z,398.35
2022-12-28T04:31:43.348Z,398.54
2022-12-28T04:32:43.327Z,397.38
2022-12-28T04:33:43.349Z,396.34
2022-12-28T04:34:48.357Z,396.64
2022-12-28T04:35:43.356Z,396.67
2022-12-28T04:36:43.336Z,396.48
2022-12-28T04:37:43.329Z,396.2
2022-12-28T04:38:44.255Z,396.33
2022-12-28T04:39:54.493Z,397.23
2022-12-28T04:40:43.343Z,396.34
2022-12-28T04:41:43.336Z,396.16
2022-12-28T04:42:43.348Z,394.65
2022-12-28T04:43:43.341Z,394.43
2022-12-28T04:44:43.340Z,393.07
2022-12-28T04:45:43.353Z,393.01
2022-12-28T04:46:43.380Z,392.78
2022-12-28T04:47:43.348Z,392.59
2022-12-28T04:48:43.346Z,393.54
2022-12-28T04:49:46.389Z,393.96
2022-12-28T04:50:43.353Z,395.8
2022-12-28T04:51:43.376Z,397.53
2022-12-28T04:52:43.359Z,398.57
2022-12-28T04:53:43.358Z,400.81
2022-12-28T04:54:43.355Z,401.67
2022-12-28T04:55:43.367Z,403.56
2022-12-28T04:56:43.368Z,404.77
2022-12-28T04:57:43.372Z,406.73
2022-12-28T04:58:43.367Z,407.83
2022-12-28T04:59:43.375Z,409.01
2022-12-28T05:00:46.258Z,410.6
2022-12-28T05:01:43.557Z,410.94
2022-12-28T05:02:46.307Z,412.32
2022-12-28T05:03:43.375Z,412.86
2022-12-28T05:04:43.389Z,414.78
2022-12-28T05:05:43.373Z,414.94
2022-12-28T05:06:43.388Z,415.97
2022-12-28T05:07:43.404Z,418.14
2022-12-28T05:08:43.387Z,418.7
2022-12-28T05:09:43.382Z,419.74
2022-12-28T05:10:43.384Z,421.2
2022-12-28T05:11:43.386Z,422.03
2022-12-28T05:12:43.383Z,423.65
2022-12-28T05:13:43.386Z,423.96
2022-12-28T05:14:43.390Z,424.62
2022-12-28T05:15:43.389Z,426.29
2022-12-28T05:16:43.412Z,427.08
2022-12-28T05:17:43.396Z,427.68
2022-12-28T05:18:43.402Z,428.08
2022-12-28T05:19:43.407Z,428.94
2022-12-28T05:20:43.408Z,429.75
2022-12-28T05:21:43.408Z,430.57
2022-12-28T05:22:43.409Z,430.98
2022-12-28T05:23:43.434Z,431.98
2022-12-28T05:24:43.412Z,432.43
2022-12-28T05:25:43.406Z,433.13
2022-12-28T05:26:43.417Z,434.16
2022-12-28T05:27:43.416Z,434.44
2022-12-28T05:28:43.415Z,435.54
2022-12-28T05:29:43.414Z,435.48
2022-12-28T05:30:43.431Z,436.23
2022-12-28T05:31:43.620Z,436.79
2022-12-28T05:32:46.555Z,437.99
2022-12-28T05:33:43.425Z,438.7
2022-12-28T05:34:43.425Z,439.99
2022-12-28T05:35:43.420Z,440.14
2022-12-28T05:36:43.431Z,440.54
2022-12-28T05:37:43.440Z,442.23
2022-12-28T05:38:43.427Z,442.5
2022-12-28T05:39:43.462Z,443.91
2022-12-28T05:40:43.437Z,444.71
2022-12-28T05:41:43.437Z,446.83
2022-12-28T05:42:47.947Z,447.21
2022-12-28T05:43:46.249Z,448.66
2022-12-28T05:44:43.447Z,448.7
2022-12-28T05:45:43.442Z,450.97
2022-12-28T05:46:43.494Z,451.22
2022-12-28T05:47:43.439Z,452.43
2022-12-28T05:48:43.448Z,453.26
2022-12-28T05:49:43.460Z,454.5
2022-12-28T05:50:43.447Z,455.09
2022-12-28T05:51:43.471Z,456.32
2022-12-28T05:52:43.446Z,457.05
2022-12-28T05:53:43.460Z,458.28
2022-12-28T05:54:43.493Z,460.12
2022-12-28T05:55:43.485Z,461.34
2022-12-28T05:56:43.470Z,462.78
2022-12-28T05:57:43.462Z,464.47
2022-12-28T05:58:43.465Z,465.25
2022-12-28T05:59:43.469Z,466.26
2022-12-28T06:00:43.462Z,468.18
2022-12-28T06:01:43.573Z,469.38
2022-12-28T06:02:43.530Z,470.29
2022-12-28T06:03:43.472Z,471.03
2022-12-28T06:04:43.480Z,472.68
2022-12-28T06:05:43.480Z,473.45
2022-12-28T06:06:43.468Z,474.88
2022-12-28T06:07:43.477Z,474.65
2022-12-28T06:08:43.483Z,475.62
2022-12-28T06:09:43.491Z,477.61
2022-12-28T06:10:43.480Z,479.01
2022-12-28T06:11:43.504Z,479.97
2022-12-28T06:12:43.485Z,480.56
2022-12-28T06:13:43.480Z,481.53
2022-12-28T06:14:43.482Z,482.54
2022-12-28T06:15:43.554Z,483.54
2022-12-28T06:16:43.605Z,483.28
2022-12-28T06:17:43.504Z,483.83
2022-12-28T06:18:43.495Z,483.53
2022-12-28T06:19:43.497Z,484.13
2022-12-28T06:20:43.496Z,484.55
2022-12-28T06:21:43.502Z,484.66
2022-12-28T06:22:43.511Z,485.1
2022-12-28T06:23:43.514Z,485.29
2022-12-28T06:24:43.500Z,485.12
2022-12-28T06:25:43.648Z,484.97
2022-12-28T06:26:43.509Z,485.53
2022-12-28T06:27:43.539Z,485.28
2022-12-28T06:28:43.504Z,485.76
2022-12-28T06:29:43.520Z,486.97
2022-12-28T06:30:46.429Z,486.77
2022-12-28T06:31:43.590Z,488.04
2022-12-28T06:32:43.516Z,488.22
2022-12-28T06:33:43.523Z,488.78
2022-12-28T06:34:43.521Z,488.78
2022-12-28T06:35:43.521Z,489.94
2022-12-28T06:36:43.654Z,490.02
2022-12-28T06:37:43.527Z,491.19
2022-12-28T06:38:43.519Z,491.11
2022-12-28T06:39:43.528Z,491.88
2022-12-28T06:41:43.540Z,492.57
2022-12-28T06:42:43.532Z,492.59
2022-12-28T06:43:43.560Z,492.99
2022-12-28T06:44:44.799Z,492.94
2022-12-28T06:45:43.588Z,493.35
2022-12-28T06:46:43.567Z,493.71
2022-12-28T06:47:43.544Z,494.4
2022-12-28T06:48:43.545Z,494.44
2022-12-28T06:49:43.561Z,494.37
2022-12-28T06:50:43.544Z,494.61
2022-12-28T06:51:43.553Z,493.94
2022-12-28T06:52:43.549Z,494.72
2022-12-28T06:53:43.598Z,495.43
2022-12-28T06:54:43.554Z,495.49
2022-12-28T06:55:43.556Z,495.12
2022-12-28T06:56:43.562Z,496.07
2022-12-28T06:57:43.560Z,495.65
2022-12-28T06:58:43.576Z,496.25
2022-12-28T06:59:43.588Z,496.36
2022-12-28T07:00:43.566Z,496.41
2022-12-28T07:01:43.743Z,496.52
2022-12-28T07:02:43.641Z,497.34
2022-12-28T07:03:43.565Z,497.89
2022-12-28T07:04:43.565Z,498.53
2022-12-28T07:05:46.569Z,499.04
2022-12-28T07:06:43.586Z,499.86
2022-12-28T07:07:43.565Z,500.24
2022-12-28T07:08:43.573Z,500.56
2022-12-28T07:09:43.573Z,501.35
2022-12-28T07:10:43.568Z,502.36
2022-12-28T07:11:43.602Z,502.33
2022-12-28T07:12:43.577Z,502.98
2022-12-28T07:13:43.571Z,504.46
2022-12-28T07:14:43.588Z,504.28
2022-12-28T07:15:43.602Z,503.89
2022-12-28T07:16:46.387Z,504.68
2022-12-28T07:17:43.583Z,504.66
2022-12-28T07:18:43.590Z,506.14
2022-12-28T07:19:43.588Z,507.14
2022-12-28T07:20:43.599Z,507.73
2022-12-28T07:21:43.592Z,508.78
2022-12-28T07:22:43.588Z,508.68
2022-12-28T07:23:43.592Z,510.1
2022-12-28T07:24:43.595Z,510.85
2022-12-28T07:25:43.592Z,512.23
2022-12-28T07:26:43.594Z,512.94
2022-12-28T07:27:46.380Z,514.51
2022-12-28T07:28:43.600Z,515.54
2022-12-28T07:29:43.603Z,516.51
2022-12-28T07:30:43.639Z,517.6
2022-12-28T07:31:45.602Z,518.02
2022-12-28T07:32:43.603Z,519.38
2022-12-28T07:33:43.614Z,519.83
2022-12-28T07:34:43.612Z,521.38
2022-12-28T07:35:43.607Z,522.53
2022-12-28T07:36:43.612Z,523.3
2022-12-28T07:37:43.618Z,524.91
2022-12-28T07:38:43.639Z,527.88
2022-12-28T07:39:43.621Z,528.85
2022-12-28T07:40:43.625Z,530.82
2022-12-28T07:41:43.625Z,531.78
2022-12-28T07:42:43.632Z,533.09
2022-12-28T07:43:43.619Z,534.8
2022-12-28T07:44:48.730Z,536.53
2022-12-28T07:45:43.689Z,539.01
2022-12-28T07:46:43.628Z,541.17
2022-12-28T07:47:43.671Z,542.52
2022-12-28T07:48:43.639Z,544.29
2022-12-28T07:49:43.634Z,546.42
2022-12-28T07:50:43.628Z,548.74
2022-12-28T07:51:43.633Z,551.02
2022-12-28T07:52:43.634Z,552.53
2022-12-28T07:53:43.650Z,553.81
2022-12-28T07:54:43.641Z,555.3
2022-12-28T07:55:43.645Z,556.84
2022-12-28T07:56:43.656Z,558.11
2022-12-28T07:57:43.647Z,559.22
2022-12-28T07:59:46.665Z,561.74
2022-12-28T08:00:43.646Z,562.02
2022-12-28T08:01:43.804Z,562.86
2022-12-28T08:02:43.659Z,563.14
2022-12-28T08:03:43.722Z,565.22
2022-12-28T08:04:47.489Z,565.96
2022-12-28T08:05:43.660Z,567.1
2022-12-28T08:06:44.103Z,568.13
2022-12-28T08:07:43.661Z,569.32
2022-12-28T08:08:43.665Z,570.21
2022-12-28T08:09:43.664Z,571.28
2022-12-28T08:10:46.689Z,572.98
2022-12-28T08:11:43.667Z,574.09
2022-12-28T08:12:43.673Z,575.19
2022-12-28T08:13:43.680Z,576.91
2022-12-28T08:14:43.674Z,578.6
2022-12-28T08:15:43.707Z,580.27
2022-12-28T08:16:43.671Z,580.62
2022-12-28T08:17:43.681Z,582.86
2022-12-28T08:18:43.674Z,583.93
2022-12-28T08:19:43.709Z,584.27
2022-12-28T08:20:43.691Z,586.32
2022-12-28T08:21:43.684Z,586.93
2022-12-28T08:22:43.685Z,589.14
2022-12-28T08:23:43.682Z,590.3
2022-12-28T08:24:43.683Z,591.93
2022-12-28T08:25:43.690Z,594.23
2022-12-28T08:26:43.698Z,595.83
2022-12-28T08:27:43.693Z,597.35
2022-12-28T08:28:43.699Z,599.38
2022-12-28T08:29:43.696Z,600.84
2022-12-28T08:30:43.764Z,602.06
2022-12-28T08:31:43.712Z,603.51
2022-12-28T08:32:43.703Z,605.27
2022-12-28T08:33:43.703Z,606.65
2022-12-28T08:34:43.706Z,607.58
2022-12-28T08:35:43.736Z,608.62
2022-12-28T08:36:43.711Z,609.69
2022-12-28T08:37:43.707Z,611.7
2022-12-28T08:38:43.719Z,612.42
2022-12-28T08:39:43.719Z,613.64
2022-12-28T08:40:43.719Z,615.16
2022-12-28T08:41:43.738Z,616.01
2022-12-28T08:42:43.713Z,617.56
2022-12-28T08:43:43.725Z,618.12
2022-12-28T08:44:43.720Z,619.73
2022-12-28T08:45:43.767Z,621.49
2022-12-28T08:46:43.830Z,623.29
2022-12-28T08:47:43.722Z,624.96
2022-12-28T08:48:43.728Z,626.33
2022-12-28T08:49:43.746Z,628.29
2022-12-28T08:50:43.730Z,630.43
2022-12-28T08:51:43.762Z,631.82
2022-12-28T08:52:43.727Z,633.59
2022-12-28T08:53:43.730Z,635.37
2022-12-28T08:54:43.760Z,637.25
2022-12-28T08:55:43.740Z,638.88
2022-12-28T08:56:43.741Z,641.02
2022-12-28T08:57:43.750Z,642.8
2022-12-28T08:58:43.741Z,645.03
2022-12-28T08:59:43.769Z,646.25
2022-12-28T09:00:43.750Z,648.77
2022-12-28T09:01:44.820Z,650.87
2022-12-28T09:02:43.879Z,653.13
2022-12-28T09:03:43.877Z,654.44
2022-12-28T09:04:43.775Z,656.74
2022-12-28T09:05:43.751Z,658.49
2022-12-28T09:06:43.771Z,660.4
2022-12-28T09:07:43.783Z,662.85
2022-12-28T09:08:51.379Z,665.26
2022-12-28T09:09:43.806Z,666.58
2022-12-28T09:10:43.760Z,669.49
2022-12-28T09:11:43.754Z,671.04
2022-12-28T09:12:43.760Z,673.93
2022-12-28T09:13:43.766Z,676.33
2022-12-28T09:14:43.792Z,678.15
2022-12-28T09:15:43.842Z,680.54
2022-12-28T09:16:43.790Z,681.98
2022-12-28T09:17:43.771Z,684.1
2022-12-28T09:18:43.768Z,685.99
2022-12-28T09:19:43.798Z,688.15
2022-12-28T09:20:47.812Z,690.13
2022-12-28T09:21:43.784Z,691.58
2022-12-28T09:22:43.781Z,693.85
2022-12-28T09:23:43.813Z,695.83
2022-12-28T09:24:43.807Z,698.17
2022-12-28T09:25:43.809Z,699.88
2022-12-28T09:26:43.795Z,701.78
2022-12-28T09:27:43.787Z,703.24
2022-12-28T09:28:43.781Z,705.16
2022-12-28T09:29:43.808Z,707.36
2022-12-28T09:30:43.789Z,708.78
2022-12-28T09:31:43.927Z,711.15
2022-12-28T09:32:46.805Z,713.05
2022-12-28T09:34:05.713Z,715.56
2022-12-28T09:34:48.425Z,717.43
2022-12-28T09:35:48.401Z,719.2
2022-12-28T09:36:48.412Z,720.83
2022-12-28T09:37:48.404Z,722.41
2022-12-28T09:38:51.337Z,724.71
2022-12-28T09:39:48.423Z,726.94
2022-12-28T09:40:48.404Z,729.03
2022-12-28T09:41:48.410Z,731.5
2022-12-28T09:42:48.407Z,732.99
2022-12-28T09:43:48.452Z,735.43
2022-12-28T09:44:48.460Z,737.49
2022-12-28T09:45:48.415Z,739.54
2022-12-28T09:46:48.952Z,741.61
2022-12-28T09:47:48.426Z,742.98
2022-12-28T09:48:48.413Z,745.64
2022-12-28T09:49:48.450Z,747.59
2022-12-28T09:50:48.416Z,749.24
2022-12-28T09:51:48.427Z,750.79
2022-12-28T09:52:49.921Z,752.98
2022-12-28T09:53:48.417Z,754.84
2022-12-28T09:54:48.480Z,756.04
2022-12-28T09:55:48.427Z,757.34
2022-12-28T09:56:48.426Z,758.62
2022-12-28T09:57:48.428Z,760.36
2022-12-28T09:58:48.431Z,761.27
2022-12-28T09:59:48.455Z,762.53
2022-12-28T10:00:48.432Z,763.98
2022-12-28T10:01:48.559Z,764.59
2022-12-28T10:02:48.577Z,766.63
2022-12-28T10:03:48.437Z,767.52
2022-12-28T10:04:49.418Z,768.28
2022-12-28T10:05:48.433Z,769.49
2022-12-28T10:06:48.438Z,770.5
2022-12-28T10:07:48.498Z,771.66
2022-12-28T10:08:48.452Z,772.86
2022-12-28T10:09:48.481Z,773.3
2022-12-28T10:10:49.267Z,774.15
2022-12-28T10:11:48.447Z,775.1
2022-12-28T10:12:48.463Z,775.6
2022-12-28T10:13:56.246Z,776.53
2022-12-28T10:14:48.469Z,777.07
2022-12-28T10:15:48.476Z,777
2022-12-28T10:16:48.989Z,778.2
2022-12-28T10:17:48.452Z,779.39
2022-12-28T10:18:48.461Z,779.56
2022-12-28T10:19:48.493Z,779.86
2022-12-28T10:20:48.496Z,780.28
2022-12-28T10:21:51.584Z,781.01
2022-12-28T10:22:50.232Z,781.35
2022-12-28T10:24:21.175Z,782.33
2022-12-28T10:24:48.475Z,782.94
2022-12-28T10:25:48.456Z,783.91
2022-12-28T10:26:48.483Z,784.68
2022-12-28T10:27:48.471Z,785.65
2022-12-28T10:28:48.937Z,785.76
2022-12-28T10:29:48.503Z,786.19
2022-12-28T10:30:48.462Z,787.11
2022-12-28T10:31:48.494Z,788.38
2022-12-28T10:32:51.297Z,788.6
2022-12-28T10:33:48.476Z,790.06
2022-12-28T10:34:48.493Z,790.89
2022-12-28T10:35:48.475Z,792.02
2022-12-28T10:36:48.477Z,793.22
2022-12-28T10:37:48.478Z,794.44
2022-12-28T10:38:48.472Z,795.54
2022-12-28T10:39:48.494Z,797.74
2022-12-28T10:40:48.478Z,799.14
2022-12-28T10:41:48.487Z,801.43
2022-12-28T10:42:48.512Z,803.53
2022-12-28T10:43:58.610Z,805.29
2022-12-28T10:44:48.508Z,809.09
2022-12-28T10:45:48.484Z,811.42
2022-12-28T10:46:48.550Z,813.86
2022-12-28T10:47:48.489Z,816.2
2022-12-28T10:48:48.487Z,819.13
2022-12-28T10:50:02.660Z,821.38
2022-12-28T10:50:48.496Z,823.67
2022-12-28T10:51:48.495Z,825.99
2022-12-28T10:52:48.499Z,828.1
2022-12-28T10:53:48.493Z,830.2
2022-12-28T10:54:53.125Z,831.5
2022-12-28T10:55:48.498Z,833.47
2022-12-28T10:56:48.502Z,835.3
2022-12-28T10:58:18.961Z,836.75
2022-12-28T10:58:48.554Z,838.29
2022-12-28T10:59:48.523Z,839.31
2022-12-28T11:00:52.181Z,841.07
2022-12-28T11:01:48.685Z,842.33
2022-12-28T11:02:48.733Z,843.33
2022-12-28T11:03:48.615Z,844.35
2022-12-28T11:04:48.530Z,846.23
2022-12-28T11:05:57.025Z,847.49
2022-12-28T11:06:48.517Z,848.52
2022-12-28T11:07:48.516Z,849.9
2022-12-28T11:08:48.520Z,851.32
2022-12-28T11:09:48.547Z,853.78
2022-12-28T11:10:48.518Z,854.36
2022-12-28T11:11:48.516Z,856.4
2022-12-28T11:12:48.527Z,857.85
2022-12-28T11:13:48.528Z,859.27
2022-12-28T11:14:48.614Z,861.55
2022-12-28T11:15:48.521Z,862.89
2022-12-28T11:16:48.619Z,864.59
2022-12-28T11:17:48.528Z,865.74
2022-12-28T11:18:48.531Z,867.24
2022-12-28T11:19:48.551Z,868.8
2022-12-28T11:20:48.536Z,870.48
2022-12-28T11:21:48.533Z,871.86
2022-12-28T11:22:48.529Z,873.64
2022-12-28T11:23:48.535Z,875.16
2022-12-28T11:24:48.568Z,876.84
2022-12-28T11:25:48.543Z,878.19
2022-12-28T11:26:48.552Z,880.31
2022-12-28T11:27:48.544Z,881.38
2022-12-28T11:28:48.541Z,883.21
2022-12-28T11:29:48.575Z,884.05
2022-12-28T11:30:48.571Z,884.94
2022-12-28T11:31:48.573Z,886.48
2022-12-28T11:32:48.563Z,887.69
2022-12-28T11:33:48.555Z,888.57
2022-12-28T11:34:48.581Z,890.28
2022-12-28T11:35:48.561Z,891.24
2022-12-28T11:36:48.557Z,892.2
2022-12-28T11:37:48.559Z,892.13
2022-12-28T11:38:48.562Z,893.11
2022-12-28T11:39:48.577Z,893.43
2022-12-28T11:40:48.555Z,893.41
2022-12-28T11:42:10.298Z,893.8
2022-12-28T11:42:48.563Z,893.85
2022-12-28T11:43:51.670Z,894.14
2022-12-28T11:44:48.589Z,894.16
2022-12-28T11:45:48.592Z,894.77
2022-12-28T11:46:48.593Z,895.29
2022-12-28T11:47:48.575Z,895.85
2022-12-28T11:48:48.570Z,895.73
2022-12-28T11:49:48.614Z,896.1
2022-12-28T11:50:48.578Z,895.73
2022-12-28T11:51:48.572Z,896.03
2022-12-28T11:52:48.583Z,896.06
2022-12-28T11:53:48.588Z,896.28
2022-12-28T11:54:49.440Z,896.95
2022-12-28T11:55:48.580Z,897.29
2022-12-28T11:56:48.588Z,897.2
2022-12-28T11:57:48.591Z,897.68
2022-12-28T11:58:48.585Z,897.67
2022-12-28T11:59:48.586Z,896.77
2022-12-28T12:00:48.586Z,896.71
2022-12-28T12:01:48.611Z,896.14
2022-12-28T12:02:48.620Z,895.33
2022-12-28T12:03:48.601Z,894.47
2022-12-28T12:04:48.598Z,893.97
2022-12-28T12:05:51.373Z,893.62
2022-12-28T12:06:48.620Z,892.8
2022-12-28T12:07:48.609Z,892.32
2022-12-28T12:08:48.608Z,891.38
2022-12-28T12:09:48.622Z,891.75
2022-12-28T12:10:48.622Z,891.22
2022-12-28T12:11:48.621Z,891.5
2022-12-28T12:12:48.619Z,891.68
2022-12-28T12:13:48.628Z,891.54
2022-12-28T12:14:48.610Z,891.33
2022-12-28T12:15:48.619Z,892.29
2022-12-28T12:16:48.735Z,892.82
2022-12-28T12:17:48.626Z,892.31
2022-12-28T12:18:48.643Z,892.73
2022-12-28T12:19:48.625Z,893.02
2022-12-28T12:20:48.631Z,893.19
2022-12-28T12:21:48.626Z,893.26
2022-12-28T12:22:48.629Z,893.46
2022-12-28T12:23:48.625Z,892.92
2022-12-28T12:24:48.630Z,893.27
2022-12-28T12:25:48.664Z,893.69
2022-12-28T12:26:48.629Z,893.82
2022-12-28T12:27:48.629Z,894.13
2022-12-28T12:28:48.636Z,894.5
2022-12-28T12:29:48.634Z,893.98
2022-12-28T12:30:48.650Z,893.77
2022-12-28T12:31:48.632Z,893.03
2022-12-28T12:32:48.638Z,893.01
2022-12-28T12:33:48.652Z,892.05